Etusivu
METAR-TAF:

METAR-TAF

Lentoasemat :

Arvidsjaur, Ruotsi

Leveyspiiri: 65-35-25N, Pituuspiiri: 019-16-55E, korkeus merenpinnasta: 379 m

Tämänhetkinen sää

Tämä raportti tehtiin 36 minuuttia sitten, kello 05.50 UTC
Tuuli 5 kn pohjoisen/luoteesta
Lämpötila 16°C
Kosteus 94%
Ilmanpaine 1013 hPa
Näkyvyys 10 km tai enemmän

METAR: ESNX 190550Z AUTO 34005KT 9999 BKN008/// BKN011/// OVC015/// 16/15 Q1013

Aika: 08:26 (06:26 UTC)

Sääennuste

Tämä raportti tehtiin 18 tuntia ja 56 minuuttia sitten, kello 11.30 UTC
Ennuste voimassa 18. päivästä klo 12 UTC - 18. päivään klo 15 UTC
Tuuli 10 kn koillisesta
Näkyvyys 10 km tai enemmän
Hajanaisia pilviä 500 ft:n korkeudessa
Hajonneita pilviä 1500 ft:n korkeudessa
Ajoittain
18. päivästä klo 12 UTC - 18. päivään klo 15 UTC
Näkyvyys: 4000 m
Hajonneita pilviä 400 ft:n korkeudessa
sadetta, tihkusadetta,

TAF: ESNX 181130Z 1812/1815 04010KT 9999 SCT005 BKN015 TEMPO 1812/1815 4000 RADZ BKN004

Säähavainnot ja -ennusteet yli 4000 lentoasemalta (METAR- ja TAF-raportit).

Käytössä olevat sääasemat on merkitty karttaan keltaisilla ja punaisilla pisteillä.

Aseta hiiri pisteen päälle nähdäksesi sääaseman nimen.

Klikkaa sitten nähdäksesi säähavainnot ja -ennusteet.

Kartan vaihtaminen: klikkaa mustalla rastilla varustettuja vihreitä pisteitä, niin voit zoomata sisään; viivalla varustettua vihreää pistettä, niin voit zoomata ulos tai vihreitä nuolia, niin pääset viereisille kartoille.


METAR-TAF: